Time;durP1;ratioP1;P1;durP2;ratioP2;P2;SDS_P1;SDS_P2;PMS_P1;PMS_P2;Temp;Humidity;BMP_temperature;BMP_pressure;BME280_temperature;BME280_humidity;BME280_pressure;Samples;Min_cycle;Max_cycle;Signal;HPM_P1;HPM_P2
2024/03/25 00:03:29;;;;;;;3.47;3.17;;;5.10;99.90;;;5.77;94.20;97168.78;10420859;28;20307;-71
2024/03/25 00:08:31;;;;;;;3.90;3.03;;;5.10;99.90;;;5.79;94.05;97179.91;10420486;28;20343;-71
2024/03/25 00:13:34;;;;;;;3.10;2.80;;;5.10;99.90;;;5.78;94.16;97180.72;10438043;28;20323;-65
2024/03/25 00:18:36;;;;;;;3.27;2.93;;;5.10;99.90;;;5.81;94.32;97175.84;10421146;28;20788;-66
2024/03/25 00:23:38;;;;;;;3.90;2.83;;;5.00;99.90;;;5.67;94.85;97180.81;10422545;28;20678;-67
2024/03/25 00:28:42;;;;;;;3.47;3.17;;;5.00;99.90;;;5.67;95.33;97176.59;10421792;28;20320;-67
2024/03/25 00:33:44;;;;;;;3.53;3.20;;;5.00;99.90;;;5.71;95.31;97170.94;10419338;28;20320;-67
2024/03/25 00:38:46;;;;;;;3.50;3.20;;;5.00;99.90;;;5.72;95.09;97169.28;10420931;28;20296;-66
2024/03/25 00:43:50;;;;;;;4.13;3.27;;;5.00;99.90;;;5.73;94.28;97164.31;10420776;28;20331;-67
2024/03/25 00:48:52;;;;;;;4.20;3.43;;;5.00;99.90;;;5.65;95.41;97162.94;10420111;28;20225;-66
2024/03/25 00:53:54;;;;;;;3.53;3.10;;;4.90;99.90;;;5.64;95.19;97168.81;10427521;28;20376;-66
2024/03/25 00:59:02;;;;;;;5.30;3.53;;;4.90;99.90;;;5.59;95.00;97162.56;10427319;28;20334;-66
2024/03/25 01:04:04;;;;;;;3.53;3.23;;;4.80;99.90;;;5.35;96.44;97160.19;10431399;28;20745;-68
2024/03/25 01:09:07;;;;;;;4.03;3.50;;;4.70;99.90;;;5.31;97.13;97155.69;10428653;28;20799;-68
2024/03/25 01:14:11;;;;;;;4.10;3.47;;;4.60;99.90;;;5.22;97.70;97157.63;10426589;28;20321;-67
2024/03/25 01:19:13;;;;;;;4.00;3.60;;;4.50;99.90;;;5.12;98.69;97155.22;10425612;28;20811;-68
2024/03/25 01:24:15;;;;;;;3.87;3.53;;;4.40;99.90;;;5.03;99.27;97158.03;10410402;28;20822;-69
2024/03/25 01:29:19;;;;;;;3.97;3.27;;;4.30;99.90;;;4.96;99.78;97151.69;10429602;28;20329;-66
2024/03/25 01:34:21;;;;;;;4.67;3.70;;;4.20;99.90;;;4.89;100.00;97154.59;10410335;28;20317;-66
2024/03/25 01:39:24;;;;;;;4.10;3.80;;;4.20;99.90;;;4.89;99.83;97149.53;10426203;28;20332;-67
2024/03/25 01:44:27;;;;;;;4.93;3.97;;;4.10;99.90;;;4.84;100.00;97142.41;10423378;28;20313;-67
2024/03/25 01:49:29;;;;;;;5.47;3.80;;;4.20;99.90;;;4.90;100.00;97136.09;10427777;28;20324;-67
2024/03/25 01:54:32;;;;;;;3.83;3.50;;;4.20;99.90;;;4.89;100.00;97136.88;10425124;28;20360;-67
2024/03/25 01:59:36;;;;;;;4.57;3.53;;;4.20;99.90;;;4.87;100.00;97137.56;10423188;28;20360;-70
2024/03/25 02:04:38;;;;;;;6.07;3.57;;;4.20;99.90;;;4.82;100.00;97141.44;10425117;28;20343;-70
2024/03/25 02:09:41;;;;;;;4.17;3.80;;;4.20;99.90;;;4.83;100.00;97143.16;10423383;28;20894;-67
2024/03/25 02:14:45;;;;;;;5.10;4.57;;;4.20;99.90;;;4.82;100.00;97141.44;10456478;28;20966;-66
2024/03/25 02:19:47;;;;;;;5.43;3.90;;;4.10;99.90;;;4.87;100.00;97135.91;10426847;28;20667;-70
2024/03/25 02:24:53;;;;;;;5.30;4.03;;;4.20;99.90;;;4.78;100.00;97137.81;10424389;28;20312;-71
2024/03/25 02:30:04;;;;;;;4.30;3.90;;;4.10;99.90;;;4.75;100.00;97142.69;10454577;28;20771;-67
2024/03/25 02:35:10;;;;;;;4.20;3.87;;;4.10;99.90;;;4.80;100.00;97143.84;10377256;28;21496;-68
2024/03/25 02:40:12;;;;;;;4.40;3.90;;;4.10;99.90;;;4.81;100.00;97145.63;10396377;28;20784;-70
2024/03/25 02:45:16;;;;;;;4.77;3.97;;;4.10;99.90;;;4.90;100.00;97146.22;10411205;22;20231;-68
2024/03/25 02:50:19;;;;;;;4.40;4.10;;;4.20;99.90;;;5.18;98.57;97148.94;10421397;28;20660;-66
2024/03/25 02:55:21;;;;;;;4.30;3.90;;;4.40;99.90;;;5.36;97.41;97144.19;10386945;28;20368;-66
2024/03/25 03:00:24;;;;;;;4.37;3.97;;;4.50;99.90;;;5.47;96.46;97152.50;10385604;28;20306;-66
2024/03/25 03:05:26;;;;;;;4.87;4.33;;;4.60;99.90;;;5.47;96.98;97155.03;10378681;28;20720;-66
2024/03/25 03:10:29;;;;;;;4.40;3.93;;;4.60;99.90;;;5.48;96.42;97145.78;10381204;28;20312;-66
2024/03/25 03:15:32;;;;;;;5.40;4.17;;;4.60;99.90;;;5.47;96.31;97146.56;10383270;28;20367;-66
2024/03/25 03:20:34;;;;;;;4.67;3.97;;;4.60;99.90;;;5.40;96.55;97145.25;10382431;28;20312;-66
2024/03/25 03:25:36;;;;;;;5.23;4.20;;;4.60;99.90;;;5.48;96.11;97136.50;10378784;28;20316;-66
2024/03/25 03:30:40;;;;;;;5.30;3.87;;;4.60;99.90;;;5.40;97.12;97145.25;10397223;28;20312;-66
2024/03/25 03:35:42;;;;;;;6.00;4.30;;;4.60;99.90;;;5.37;97.06;97145.94;10379831;28;20320;-66
2024/03/25 03:40:47;;;;;;;5.87;4.33;;;4.60;99.90;;;5.23;98.10;97141.63;10381098;28;20319;-66
2024/03/25 03:45:51;;;;;;;4.43;4.03;;;4.50;99.90;;;5.12;98.86;97142.56;10378111;28;20318;-66
2024/03/25 03:50:53;;;;;;;4.93;4.10;;;4.40;99.90;;;5.08;99.17;97135.56;10380322;28;20309;-66
2024/03/25 03:55:56;;;;;;;4.90;4.33;;;4.30;99.90;;;5.00;99.61;97131.63;10377455;28;20708;-66
2024/03/25 04:00:59;;;;;;;5.70;4.70;;;4.30;99.90;;;4.97;100.00;97145.84;10379615;28;20295;-66
2024/03/25 04:06:10;;;;;;;6.43;5.40;;;4.30;99.90;;;4.94;100.00;97142.25;10380499;28;20321;-65
2024/03/25 04:11:12;;;;;;;5.77;4.43;;;4.20;99.90;;;4.91;100.00;97152.16;10371277;28;20312;-66
2024/03/25 04:16:15;;;;;;;5.43;4.27;;;4.20;99.90;;;4.93;100.00;97150.63;10379554;28;20344;-66
2024/03/25 04:21:17;;;;;;;6.83;4.90;;;4.20;99.90;;;4.91;100.00;97155.56;10392479;28;20312;-66
2024/03/25 04:26:21;;;;;;;6.67;4.37;;;4.20;99.90;;;4.94;100.00;97153.25;10383258;28;20311;-66
2024/03/25 04:31:24;;;;;;;5.27;4.33;;;4.20;99.90;;;4.86;100.00;97148.44;10390281;28;20332;-66
2024/03/25 04:36:26;;;;;;;4.70;4.17;;;4.20;99.90;;;4.84;100.00;97148.34;10383905;28;20316;-66
